PWSweather.com
Personal Weather Stations
Station Observations
SANDHURSTWX
SandhurstGB

SandhurstGB

Lat: 51.3522, Lon: -0.7739

Elevation: 272.3

Station Type: Davis VP2

www.sandhurstweather.org.uk

High Low Average
Temperature 63.3°F17.4°C 53.3°F11.8°C 58.0°F14.4°C
Dew Point 58.3°F14.6°C 51.3°F10.7°C 54.5°F12.5°C
Winds 8.1 mph 13.0 kmh 1.2 mph 1.9 kmh 4.0 mph SSW6.4 kmh SSW
Wind Gusts 15.0 mph24.1 kmh 1.2 mph1.9 kmh 7.0 mph11.3 kmh
Humidity 93% 80% 88%
Pressure 29.74 in1007.1 mb 29.60 in1002.4 mb -
Precipitation 0.05 in1.3 mm - -
Hour Temp Dew Point Humidity Winds Wind Gusts Pressure Precip Precip Rate Daily Precip Total
12:00 AM 56.1°F13.4°C 53.5°F11.9°C 91% 3.5 mph S5.6 kmh S 5.8 mph9.3 kmh 29.67 in1004.7 mb - 0.00 in0.0 mm 0.00 in0.0 mm
01:00 AM 55.6°F13.1°C 53.0°F11.7°C 91% 3.5 mph S5.6 kmh S 5.8 mph9.3 kmh 29.66 in1004.4 mb - 0.00 in0.0 mm 0.00 in0.0 mm
02:00 AM 55.8°F13.2°C 53.2°F11.8°C 91% 3.5 mph S5.6 kmh S 6.9 mph11.1 kmh 29.66 in1004.4 mb - 0.00 in0.0 mm 0.00 in0.0 mm
03:00 AM 55.7°F13.2°C 53.1°F11.7°C 91% 3.5 mph SW5.6 kmh SW 3.5 mph5.6 kmh 29.66 in1004.4 mb - 0.00 in0.0 mm 0.00 in0.0 mm
04:00 AM 55.1°F12.8°C 52.5°F11.4°C 91% 3.5 mph S5.6 kmh S 6.9 mph11.1 kmh 29.65 in1004.1 mb - 0.00 in0.0 mm 0.00 in0.0 mm
05:00 AM 55.2°F12.9°C 53.2°F11.8°C 93% 3.5 mph S5.6 kmh S 4.6 mph7.4 kmh 29.64 in1003.7 mb - 0.00 in0.0 mm 0.00 in0.0 mm
06:00 AM 54.8°F12.7°C 52.8°F11.6°C 93% 3.5 mph SSW5.6 kmh SSW 4.6 mph7.4 kmh 29.63 in1003.4 mb - 0.00 in0.0 mm 0.00 in0.0 mm
07:00 AM 55.4°F13.0°C 53.1°F11.7°C 92% 3.5 mph SW5.6 kmh SW 6.9 mph11.1 kmh 29.63 in1003.4 mb - 0.00 in0.0 mm 0.00 in0.0 mm
08:00 AM 57.7°F14.3°C 54.5°F12.5°C 89% 5.8 mph S9.3 kmh S 12.7 mph20.4 kmh 29.64 in1003.7 mb - 0.00 in0.0 mm 0.00 in0.0 mm
09:00 AM 60.7°F15.9°C 55.8°F13.2°C 84% 6.9 mph SSW11.1 kmh SSW 8.1 mph13.0 kmh 29.63 in1003.4 mb - 0.00 in0.0 mm 0.00 in0.0 mm
10:00 AM 62.2°F16.8°C 56.3°F13.5°C 81% 5.8 mph SSW9.3 kmh SSW 12.7 mph20.4 kmh 29.62 in1003.0 mb - 0.00 in0.0 mm 0.00 in0.0 mm
11:00 AM 61.9°F16.6°C 58.3°F14.6°C 88% 8.1 mph SW13.0 kmh SW 10.4 mph16.7 kmh 29.61 in1002.7 mb - 0.02 in0.5 mm 0.02 in0.5 mm
12:00 PM 63.3°F17.4°C 57.4°F14.1°C 81% 8.1 mph S13.0 kmh S 15.0 mph24.1 kmh 29.61 in1002.7 mb - 0.00 in0.0 mm 0.02 in0.5 mm
01:00 PM 61.5°F16.4°C 56.9°F13.8°C 85% 5.8 mph S9.3 kmh S 11.5 mph18.5 kmh 29.60 in1002.4 mb - 0.00 in0.0 mm 0.02 in0.5 mm
02:00 PM 62.9°F17.2°C 58.0°F14.4°C 84% 6.9 mph S11.1 kmh S 11.5 mph18.5 kmh 29.60 in1002.4 mb - 0.02 in0.5 mm 0.05 in1.3 mm
03:00 PM 62.6°F17.0°C 56.7°F13.7°C 81% 8.1 mph S13.0 kmh S 12.7 mph20.4 kmh 29.60 in1002.4 mb - 0.00 in0.0 mm 0.05 in1.3 mm
04:00 PM 62.3°F16.8°C 56.0°F13.3°C 80% 5.8 mph SW9.3 kmh SW 11.5 mph18.5 kmh 29.60 in1002.4 mb - 0.00 in0.0 mm 0.05 in1.3 mm
05:00 PM 59.8°F15.4°C 55.6°F13.1°C 86% 3.5 mph SW5.6 kmh SW 5.8 mph9.3 kmh 29.62 in1003.0 mb - 0.00 in0.0 mm 0.05 in1.3 mm
06:00 PM 58.2°F14.6°C 54.3°F12.4°C 87% 3.5 mph SW5.6 kmh SW 5.8 mph9.3 kmh 29.64 in1003.7 mb - 0.00 in0.0 mm 0.05 in1.3 mm
07:00 PM 57.6°F14.2°C 54.7°F12.6°C 90% 1.2 mph WSW1.9 kmh WSW 2.3 mph3.7 kmh 29.67 in1004.7 mb - 0.00 in0.0 mm 0.05 in1.3 mm
08:00 PM 55.7°F13.2°C 53.1°F11.7°C 91% 1.2 mph SSW1.9 kmh SSW 1.2 mph1.9 kmh 29.69 in1005.4 mb - 0.00 in0.0 mm 0.05 in1.3 mm
09:00 PM 54.6°F12.6°C 52.6°F11.4°C 93% 2.3 mph WSW3.7 kmh WSW 2.3 mph3.7 kmh 29.71 in1006.1 mb - 0.00 in0.0 mm 0.05 in1.3 mm
10:00 PM 54.3°F12.4°C 52.3°F11.3°C 93% 3.5 mph SW5.6 kmh SW 3.5 mph5.6 kmh 29.73 in1006.8 mb - 0.00 in0.0 mm 0.05 in1.3 mm
11:00 PM 53.3°F11.8°C 51.3°F10.7°C 93% 1.2 mph SW1.9 kmh SW 2.3 mph3.7 kmh 29.74 in1007.1 mb - 0.00 in0.0 mm 0.04 in1.0 mm